createdAt,value
2019-03-01T00:01:20.033Z,101126.62
2019-03-01T00:03:54.207Z,101126.30
2019-03-01T00:06:34.770Z,101130.31
2019-03-01T00:09:58.239Z,101133.19
2019-03-01T00:13:49.350Z,101127.22
2019-03-01T00:17:08.911Z,101133.52
2019-03-01T00:20:17.034Z,101123.63
2019-03-01T00:23:40.721Z,101119.97
2019-03-01T00:27:07.753Z,101123.33
2019-03-01T00:30:30.269Z,101117.73
2019-03-01T00:33:26.935Z,101114.94
2019-03-01T00:36:55.632Z,101117.17
2019-03-01T00:39:58.337Z,101111.67
2019-03-01T00:43:40.888Z,101114.22
2019-03-01T00:46:08.978Z,101113.45
2019-03-01T00:48:37.030Z,101107.61
2019-03-01T00:51:05.329Z,101109.30
2019-03-01T00:53:34.250Z,101104.27
2019-03-01T00:56:02.351Z,101098.85
2019-03-01T00:58:30.990Z,101091.67
2019-03-01T01:00:59.041Z,101092.30
2019-03-01T01:03:27.235Z,101090.94
2019-03-01T01:05:55.409Z,101094.45
2019-03-01T01:08:23.488Z,101096.14
2019-03-01T01:10:51.630Z,101089.72
2019-03-01T01:13:20.050Z,101090.52
2019-03-01T01:15:49.934Z,101091.90
2019-03-01T01:18:18.201Z,101085.92
2019-03-01T01:20:46.588Z,101078.52
2019-03-01T01:23:14.736Z,101075.51
2019-03-01T01:25:42.839Z,101072.31
2019-03-01T01:28:10.904Z,101075.73
2019-03-01T01:30:39.099Z,101087.14
2019-03-01T01:33:07.440Z,101083.64
2019-03-01T01:35:35.606Z,101082.55
2019-03-01T01:38:04.077Z,101076.47
2019-03-01T01:40:32.154Z,101075.84
2019-03-01T01:43:00.267Z,101076.56
2019-03-01T01:45:28.817Z,101072.77
2019-03-01T01:47:56.922Z,101071.31
2019-03-01T01:50:25.117Z,101066.77
2019-03-01T01:52:53.288Z,101058.38
2019-03-01T01:55:21.473Z,101057.11
2019-03-01T01:57:49.943Z,101049.95
2019-03-01T02:00:18.367Z,101052.34
2019-03-01T02:02:46.444Z,101052.41
2019-03-01T02:05:14.723Z,101049.64
2019-03-01T02:07:42.896Z,101048.44
2019-03-01T02:10:11.301Z,101043.24
2019-03-01T02:12:39.390Z,101042.05
2019-03-01T02:15:10.021Z,101049.70
2019-03-01T02:17:38.449Z,101045.48
2019-03-01T02:20:08.104Z,101048.34
2019-03-01T02:22:36.334Z,101047.70
2019-03-01T02:25:05.691Z,101045.64
2019-03-01T02:27:34.176Z,101054.80
2019-03-01T02:30:05.502Z,101057.91
2019-03-01T02:32:49.610Z,101053.36
2019-03-01T02:35:27.911Z,101052.98
2019-03-01T02:37:56.300Z,101052.17
2019-03-01T02:40:24.397Z,101049.70
2019-03-01T02:42:52.737Z,101050.12
2019-03-01T02:45:21.685Z,101042.55
2019-03-01T02:47:50.149Z,101049.24
2019-03-01T02:50:18.922Z,101046.52
2019-03-01T02:52:47.237Z,101054.27
2019-03-01T02:55:16.534Z,101049.00
2019-03-01T02:57:44.583Z,101047.17
2019-03-01T03:00:22.007Z,101051.78
2019-03-01T03:02:50.075Z,101053.78
2019-03-01T03:05:18.316Z,101047.66
2019-03-01T03:07:48.869Z,101047.88
2019-03-01T03:10:17.182Z,101038.39
2019-03-01T03:12:45.710Z,101032.19
2019-03-01T03:15:15.348Z,101031.72
2019-03-01T03:17:43.708Z,101035.38
2019-03-01T03:20:12.236Z,101027.25
2019-03-01T03:22:40.324Z,101032.34
2019-03-01T03:25:09.164Z,101034.50
2019-03-01T03:27:37.493Z,101030.20
2019-03-01T03:30:08.069Z,101025.02
2019-03-01T03:32:36.167Z,101021.02
2019-03-01T03:35:04.992Z,101018.70
2019-03-01T03:37:33.117Z,101009.58
2019-03-01T03:40:01.210Z,101016.06
2019-03-01T03:42:29.454Z,101015.12
2019-03-01T03:44:57.519Z,101013.77
2019-03-01T03:47:25.910Z,101021.33
2019-03-01T03:49:54.953Z,101020.64
2019-03-01T03:52:23.018Z,101031.94
2019-03-01T03:54:51.601Z,101026.74
2019-03-01T03:57:19.679Z,101024.29
2019-03-01T03:59:47.766Z,101021.72
2019-03-01T04:02:15.953Z,101019.97
2019-03-01T04:04:44.637Z,101020.37
2019-03-01T04:07:13.009Z,101016.86
2019-03-01T04:09:41.099Z,101008.76
2019-03-01T04:12:09.493Z,101015.81
2019-03-01T04:14:37.816Z,101011.92
2019-03-01T04:17:06.046Z,101013.02
2019-03-01T04:19:34.469Z,101014.23
2019-03-01T04:22:02.988Z,101013.37
2019-03-01T04:24:31.092Z,101014.03
2019-03-01T04:26:59.674Z,101017.05
2019-03-01T04:29:28.453Z,101017.53
2019-03-01T04:31:56.983Z,101017.39
2019-03-01T04:34:25.164Z,101025.58
2019-03-01T04:36:53.297Z,101023.91
2019-03-01T04:39:21.803Z,101023.80
2019-03-01T04:41:49.974Z,101024.13
2019-03-01T04:44:18.265Z,101023.17
2019-03-01T04:46:46.406Z,101021.81
2019-03-01T04:49:14.793Z,101022.38
2019-03-01T04:51:42.967Z,101021.59
2019-03-01T04:54:11.463Z,101026.63
2019-03-01T04:56:39.722Z,101025.83
2019-03-01T04:59:07.797Z,101033.38
2019-03-01T05:01:36.155Z,101031.24
2019-03-01T05:04:04.453Z,101036.33
2019-03-01T05:06:32.585Z,101039.27
2019-03-01T05:09:00.992Z,101044.15
2019-03-01T05:11:29.184Z,101043.48
2019-03-01T05:13:57.479Z,101034.73
2019-03-01T05:16:25.581Z,101040.47
2019-03-01T05:18:53.948Z,101037.14
2019-03-01T05:21:22.155Z,101039.60
2019-03-01T05:23:50.380Z,101045.30
2019-03-01T05:26:18.750Z,101042.34
2019-03-01T05:28:46.853Z,101048.42
2019-03-01T05:31:16.497Z,101052.31
2019-03-01T05:33:44.769Z,101057.55
2019-03-01T05:36:12.882Z,101051.80
2019-03-01T05:38:40.938Z,101051.09
2019-03-01T05:41:09.127Z,101047.13
2019-03-01T05:43:37.368Z,101052.00
2019-03-01T05:46:05.491Z,101062.57
2019-03-01T05:48:33.885Z,101068.47
2019-03-01T05:51:02.090Z,101065.76
2019-03-01T05:53:30.284Z,101067.72
2019-03-01T05:55:58.505Z,101084.87
2019-03-01T05:58:39.947Z,101082.32
2019-03-01T06:01:41.705Z,101078.32
2019-03-01T06:04:35.361Z,101081.41
2019-03-01T06:08:13.685Z,101091.03
2019-03-01T06:11:28.403Z,101087.84
2019-03-01T06:14:48.574Z,101094.28
2019-03-01T06:18:08.721Z,101101.69
2019-03-01T06:21:30.863Z,101103.80
2019-03-01T06:24:18.386Z,101106.52
2019-03-01T06:27:42.753Z,101101.89
2019-03-01T06:30:54.639Z,101110.50
2019-03-01T06:34:19.028Z,101109.75
2019-03-01T06:37:49.387Z,101111.10
2019-03-01T06:41:21.544Z,101120.34
2019-03-01T06:44:39.596Z,101122.70
2019-03-01T06:47:39.115Z,101114.67
2019-03-01T06:50:18.328Z,101122.22
2019-03-01T06:52:46.474Z,101117.48
2019-03-01T06:55:53.723Z,101123.48
2019-03-01T06:58:43.922Z,101120.92
2019-03-01T07:01:15.213Z,101125.64
2019-03-01T07:03:45.268Z,101127.13
2019-03-01T07:06:13.339Z,101131.65
2019-03-01T07:08:41.719Z,101133.00
2019-03-01T07:11:09.811Z,101134.50
2019-03-01T07:13:37.886Z,101139.50
2019-03-01T07:16:06.444Z,101139.13
2019-03-01T07:18:34.500Z,101146.76
2019-03-01T07:21:02.804Z,101156.69
2019-03-01T07:23:36.695Z,101159.02
2019-03-01T07:26:01.382Z,101168.20
2019-03-01T07:28:30.398Z,101172.11
2019-03-01T07:30:58.988Z,101176.80
2019-03-01T07:33:27.541Z,101179.73
2019-03-01T07:35:55.846Z,101179.86
2019-03-01T07:38:23.922Z,101180.72
2019-03-01T07:40:52.483Z,101186.50
2019-03-01T07:43:20.694Z,101195.91
2019-03-01T07:45:49.148Z,101195.80
2019-03-01T07:48:17.520Z,101195.63
2019-03-01T07:50:45.694Z,101200.81
2019-03-01T07:53:13.783Z,101203.74
2019-03-01T07:55:41.915Z,101207.38
2019-03-01T07:58:10.084Z,101210.87
2019-03-01T08:00:38.250Z,101209.02
2019-03-01T08:03:06.466Z,101206.71
2019-03-01T08:05:35.546Z,101207.88
2019-03-01T08:08:04.665Z,101211.12
2019-03-01T08:10:33.011Z,101205.90
2019-03-01T08:13:01.090Z,101208.77
2019-03-01T08:15:29.383Z,101216.25
2019-03-01T08:17:57.571Z,101219.97
2019-03-01T08:20:30.278Z,101220.95
2019-03-01T08:22:59.820Z,101225.41
2019-03-01T08:25:28.563Z,101216.37
2019-03-01T08:27:56.994Z,101219.40
2019-03-01T08:30:25.318Z,101230.40
2019-03-01T08:32:53.425Z,101227.55
2019-03-01T08:35:21.612Z,101228.73
2019-03-01T08:37:53.204Z,101225.36
2019-03-01T08:40:19.692Z,101223.28
2019-03-01T08:42:47.838Z,101222.95
2019-03-01T08:45:16.320Z,101228.94
2019-03-01T08:47:44.477Z,101223.86
2019-03-01T08:50:14.873Z,101236.13
2019-03-01T08:52:43.244Z,101240.60
2019-03-01T08:55:14.516Z,101248.13
2019-03-01T08:57:44.608Z,101249.20
2019-03-01T09:00:28.358Z,101255.13
2019-03-01T09:02:59.710Z,101255.13
2019-03-01T09:05:27.801Z,101259.31
2019-03-01T09:07:56.328Z,101256.47
2019-03-01T09:10:24.830Z,101270.86
2019-03-01T09:12:53.815Z,101267.25
2019-03-01T09:15:22.799Z,101272.20
2019-03-01T09:17:51.279Z,101278.16
2019-03-01T09:20:19.691Z,101274.91
2019-03-01T09:22:47.830Z,101279.64
2019-03-01T09:25:16.319Z,101276.39
2019-03-01T09:27:44.482Z,101285.36
2019-03-01T09:30:19.154Z,101285.19
2019-03-01T09:32:47.374Z,101285.84
2019-03-01T09:35:50.009Z,101289.42
2019-03-01T09:38:19.143Z,101296.55
2019-03-01T09:40:47.246Z,101304.28
2019-03-01T09:43:15.819Z,101301.71
2019-03-01T09:45:45.727Z,101301.35
2019-03-01T09:48:14.215Z,101310.05
2019-03-01T09:50:42.335Z,101311.53
2019-03-01T09:53:10.440Z,101312.95
2019-03-01T09:55:38.668Z,101313.12
2019-03-01T09:58:08.451Z,101323.22
2019-03-01T10:00:38.802Z,101321.48
2019-03-01T10:03:06.884Z,101327.15
2019-03-01T10:05:34.924Z,101333.62
2019-03-01T10:08:03.462Z,101339.95
2019-03-01T10:10:31.619Z,101337.85
2019-03-01T10:12:59.776Z,101340.02
2019-03-01T10:15:27.846Z,101345.06
2019-03-01T10:17:55.913Z,101350.84
2019-03-01T10:20:26.013Z,101349.94
2019-03-01T10:22:54.018Z,101346.97
2019-03-01T10:25:22.093Z,101357.56
2019-03-01T10:27:50.504Z,101358.47
2019-03-01T10:30:20.056Z,101362.22
2019-03-01T10:32:48.212Z,101359.28
2019-03-01T10:35:16.898Z,101364.23
2019-03-01T10:37:44.985Z,101365.55
2019-03-01T10:40:15.810Z,101365.64
2019-03-01T10:42:43.904Z,101360.20
2019-03-01T10:45:19.089Z,101364.27
2019-03-01T10:47:47.381Z,101364.22
2019-03-01T10:50:15.550Z,101366.77
2019-03-01T10:52:43.643Z,101364.40
2019-03-01T10:55:14.386Z,101364.20
2019-03-01T10:57:42.703Z,101373.51
2019-03-01T11:00:22.289Z,101370.02
2019-03-01T11:02:51.468Z,101368.23
2019-03-01T11:05:19.940Z,101381.06
2019-03-01T11:07:49.609Z,101378.23
2019-03-01T11:10:22.058Z,101382.70
2019-03-01T11:12:50.113Z,101380.04
2019-03-01T11:15:18.642Z,101378.03
2019-03-01T11:17:46.827Z,101393.08
2019-03-01T11:20:15.466Z,101385.07
2019-03-01T11:22:43.818Z,101399.98
2019-03-01T11:25:13.310Z,101393.97
2019-03-01T11:27:41.710Z,101398.02
2019-03-01T11:30:16.512Z,101403.66
2019-03-01T11:32:44.588Z,101406.70
2019-03-01T11:35:13.959Z,101403.37
2019-03-01T11:37:42.473Z,101410.17
2019-03-01T11:40:14.777Z,101411.87
2019-03-01T11:42:43.010Z,101409.13
2019-03-01T11:45:11.277Z,101416.14
2019-03-01T11:47:39.424Z,101415.31
2019-03-01T11:50:12.029Z,101418.11
2019-03-01T11:52:40.287Z,101412.78
2019-03-01T11:55:08.482Z,101425.44
2019-03-01T11:57:36.803Z,101424.72
2019-03-01T12:00:06.249Z,101421.76
2019-03-01T12:02:34.320Z,101428.08
2019-03-01T12:05:02.942Z,101427.41
2019-03-01T12:07:31.382Z,101429.91
2019-03-01T12:09:59.609Z,101430.29
2019-03-01T12:12:27.672Z,101428.72
2019-03-01T12:14:55.746Z,101430.95
2019-03-01T12:17:24.351Z,101435.68
2019-03-01T12:19:52.734Z,101440.40
2019-03-01T12:22:21.027Z,101437.08
2019-03-01T12:24:49.146Z,101436.30
2019-03-01T12:27:17.239Z,101437.34
2019-03-01T12:29:45.349Z,101435.30
2019-03-01T12:32:13.482Z,101430.30
2019-03-01T12:34:41.594Z,101438.16
2019-03-01T12:37:10.077Z,101447.44
2019-03-01T12:39:38.543Z,101451.41
2019-03-01T12:42:06.838Z,101454.93
2019-03-01T12:44:35.049Z,101451.45
2019-03-01T12:47:03.191Z,101449.02
2019-03-01T12:49:31.831Z,101435.14
2019-03-01T12:52:00.258Z,101435.56
2019-03-01T12:54:28.427Z,101439.70
2019-03-01T12:56:56.489Z,101450.23
2019-03-01T12:59:24.580Z,101448.21
2019-03-01T13:01:53.144Z,101455.98
2019-03-01T13:04:21.187Z,101453.15
2019-03-01T13:06:49.818Z,101453.86
2019-03-01T13:09:17.883Z,101449.51
2019-03-01T13:11:48.634Z,101446.31
2019-03-01T13:14:17.760Z,101456.14
2019-03-01T13:16:45.948Z,101454.08
2019-03-01T13:19:14.070Z,101447.02
2019-03-01T13:21:42.195Z,101448.94
2019-03-01T13:24:12.684Z,101454.72
2019-03-01T13:26:41.644Z,101444.98
2019-03-01T13:29:09.877Z,101447.77
2019-03-01T13:31:38.303Z,101449.91
2019-03-01T13:34:06.427Z,101451.30
2019-03-01T13:36:36.234Z,101439.47
2019-03-01T13:39:07.750Z,101443.13
2019-03-01T13:41:37.209Z,101440.36
2019-03-01T13:44:06.127Z,101446.55
2019-03-01T13:46:34.238Z,101443.34
2019-03-01T13:49:02.324Z,101443.06
2019-03-01T13:51:30.477Z,101430.31
2019-03-01T13:53:58.656Z,101431.19
2019-03-01T13:56:27.080Z,101434.75
2019-03-01T13:58:55.421Z,101439.86
2019-03-01T14:01:27.045Z,101442.17
2019-03-01T14:03:54.295Z,101442.92
2019-03-01T14:06:22.759Z,101446.90
2019-03-01T14:08:51.482Z,101446.09
2019-03-01T14:11:23.277Z,101443.13
2019-03-01T14:13:51.069Z,101438.30
2019-03-01T14:16:21.643Z,101440.45
2019-03-01T14:18:50.060Z,101437.05
2019-03-01T14:21:18.604Z,101429.32
2019-03-01T14:23:46.758Z,101432.52
2019-03-01T14:26:18.234Z,101431.16
2019-03-01T14:28:45.016Z,101425.89
2019-03-01T14:31:13.508Z,101430.20
2019-03-01T14:33:41.694Z,101425.25
2019-03-01T14:36:10.143Z,101422.38
2019-03-01T14:38:38.670Z,101426.67
2019-03-01T14:41:06.758Z,101431.78
2019-03-01T14:43:34.970Z,101442.72
2019-03-01T14:46:03.935Z,101440.81
2019-03-01T14:48:32.065Z,101446.11
2019-03-01T14:51:00.237Z,101448.98
2019-03-01T14:53:31.140Z,101452.88
2019-03-01T14:56:09.002Z,101454.42
2019-03-01T14:58:48.077Z,101457.91
2019-03-01T15:01:39.298Z,101450.01
2019-03-01T15:04:07.431Z,101453.45
2019-03-01T15:06:37.193Z,101469.19
2019-03-01T15:09:08.142Z,101467.50
2019-03-01T15:11:36.539Z,101467.50
2019-03-01T15:14:04.909Z,101470.21
2019-03-01T15:16:33.298Z,101475.25
2019-03-01T15:19:04.758Z,101478.86
2019-03-01T15:21:34.108Z,101470.31
2019-03-01T15:24:02.280Z,101480.92
2019-03-01T15:26:30.351Z,101471.99
2019-03-01T15:28:59.064Z,101476.77
2019-03-01T15:31:27.445Z,101482.86
2019-03-01T15:33:55.876Z,101490.52
2019-03-01T15:36:23.928Z,101490.73
2019-03-01T15:38:52.728Z,101487.07
2019-03-01T15:41:21.240Z,101488.88
2019-03-01T15:43:49.470Z,101491.10
2019-03-01T15:46:18.040Z,101491.36
2019-03-01T15:48:46.729Z,101495.33
2019-03-01T15:51:14.867Z,101496.58
2019-03-01T15:53:42.982Z,101493.11
2019-03-01T15:56:11.040Z,101498.15
2019-03-01T15:58:39.274Z,101507.48
2019-03-01T16:01:11.868Z,101510.26
2019-03-01T16:03:40.217Z,101509.48
2019-03-01T16:06:10.565Z,101507.87
2019-03-01T16:08:38.805Z,101512.12
2019-03-01T16:11:09.208Z,101512.50
2019-03-01T16:13:37.045Z,101516.49
2019-03-01T16:16:05.132Z,101524.36
2019-03-01T16:18:35.361Z,101519.75
2019-03-01T16:21:05.260Z,101529.23
2019-03-01T16:23:34.442Z,101532.02
2019-03-01T16:26:02.546Z,101537.33
2019-03-01T16:28:31.202Z,101535.78
2019-03-01T16:31:00.579Z,101529.34
2019-03-01T16:33:29.977Z,101536.38
2019-03-01T16:35:58.309Z,101534.91
2019-03-01T16:38:26.435Z,101540.34
2019-03-01T16:40:54.526Z,101542.02
2019-03-01T16:43:25.384Z,101532.84
2019-03-01T16:45:53.311Z,101542.91
2019-03-01T16:48:22.782Z,101537.19
2019-03-01T16:50:51.205Z,101543.69
2019-03-01T16:53:19.632Z,101545.45
2019-03-01T16:55:49.253Z,101545.07
2019-03-01T16:58:17.638Z,101550.38
2019-03-01T17:00:45.848Z,101557.28
2019-03-01T17:03:17.910Z,101556.31
2019-03-01T17:05:44.166Z,101555.50
2019-03-01T17:08:12.231Z,101558.63
2019-03-01T17:10:40.919Z,101565.00
2019-03-01T17:13:09.101Z,101573.77
2019-03-01T17:15:37.389Z,101571.92
2019-03-01T17:18:11.326Z,101575.80
2019-03-01T17:20:38.579Z,101576.66
2019-03-01T17:23:07.219Z,101580.36
2019-03-01T17:25:36.462Z,101585.66
2019-03-01T17:28:04.879Z,101584.43
2019-03-01T17:30:33.333Z,101583.52
2019-03-01T17:33:01.435Z,101588.18
2019-03-01T17:35:29.903Z,101593.23
2019-03-01T17:37:58.066Z,101600.69
2019-03-01T17:40:29.414Z,101597.66
2019-03-01T17:42:57.399Z,101597.88
2019-03-01T17:45:25.609Z,101594.95
2019-03-01T17:47:55.322Z,101596.69
2019-03-01T17:50:23.858Z,101604.19
2019-03-01T17:52:51.946Z,101598.73
2019-03-01T17:55:20.112Z,101604.73
2019-03-01T17:57:50.172Z,101604.19
2019-03-01T18:00:25.477Z,101608.19
2019-03-01T18:02:54.607Z,101611.64
2019-03-01T18:05:22.790Z,101624.20
2019-03-01T18:07:50.960Z,101621.85
2019-03-01T18:10:19.137Z,101625.06
2019-03-01T18:12:47.260Z,101625.11
2019-03-01T18:15:17.341Z,101623.47
2019-03-01T18:17:47.255Z,101624.76
2019-03-01T18:20:15.633Z,101619.27
2019-03-01T18:22:44.388Z,101622.92
2019-03-01T18:25:12.645Z,101625.84
2019-03-01T18:27:40.817Z,101627.75
2019-03-01T18:30:16.118Z,101626.16
2019-03-01T18:32:45.149Z,101630.67
2019-03-01T18:35:14.134Z,101626.83
2019-03-01T18:37:42.681Z,101631.34
2019-03-01T18:40:13.526Z,101631.52
2019-03-01T18:42:41.481Z,101631.25
2019-03-01T18:45:13.016Z,101629.36
2019-03-01T18:47:41.149Z,101625.79
2019-03-01T18:50:14.582Z,101630.85
2019-03-01T18:52:42.710Z,101631.70
2019-03-01T18:55:13.732Z,101631.78
2019-03-01T18:57:41.140Z,101635.22
2019-03-01T19:00:20.299Z,101631.77
2019-03-01T19:02:48.749Z,101629.25
2019-03-01T19:05:16.920Z,101635.23
2019-03-01T19:07:45.573Z,101638.41
2019-03-01T19:10:14.114Z,101636.87
2019-03-01T19:12:44.948Z,101644.77
2019-03-01T19:15:15.602Z,101646.23
2019-03-01T19:17:44.503Z,101650.28
2019-03-01T19:20:16.314Z,101651.19
2019-03-01T19:22:44.755Z,101648.62
2019-03-01T19:25:13.556Z,101651.27
2019-03-01T19:27:41.699Z,101651.08
2019-03-01T19:30:13.605Z,101653.25
2019-03-01T19:32:42.446Z,101653.80
2019-03-01T19:35:10.541Z,101653.45
2019-03-01T19:37:38.856Z,101655.94
2019-03-01T19:40:10.913Z,101653.30
2019-03-01T19:42:48.141Z,101654.70
2019-03-01T19:45:17.937Z,101653.06
2019-03-01T19:47:46.150Z,101644.48
2019-03-01T19:50:16.512Z,101650.09
2019-03-01T19:52:46.953Z,101653.14
2019-03-01T19:55:15.421Z,101661.35
2019-03-01T19:57:43.594Z,101662.39
2019-03-01T20:00:15.518Z,101666.64
2019-03-01T20:02:43.838Z,101665.17
2019-03-01T20:05:15.433Z,101660.45
2019-03-01T20:07:43.828Z,101653.45
2019-03-01T20:10:15.056Z,101663.67
2019-03-01T20:12:44.149Z,101661.92
2019-03-01T20:15:15.435Z,101663.36
2019-03-01T20:17:44.562Z,101666.53
2019-03-01T20:20:14.940Z,101667.23
2019-03-01T20:22:43.159Z,101667.27
2019-03-01T20:25:12.785Z,101664.37
2019-03-01T20:27:42.516Z,101667.10
2019-03-01T20:30:17.343Z,101670.05
2019-03-01T20:32:47.527Z,101679.98
2019-03-01T20:35:16.702Z,101675.16
2019-03-01T20:37:44.930Z,101670.79
2019-03-01T20:40:13.607Z,101679.65
2019-03-01T20:42:41.733Z,101675.42
2019-03-01T20:45:13.891Z,101683.78
2019-03-01T20:47:42.016Z,101677.78
2019-03-01T20:50:11.906Z,101678.24
2019-03-01T20:52:40.245Z,101677.78
2019-03-01T20:55:08.653Z,101683.05
2019-03-01T20:57:38.074Z,101682.23
2019-03-01T21:00:09.682Z,101689.66
2019-03-01T21:02:37.771Z,101684.44
2019-03-01T21:05:06.840Z,101683.71
2019-03-01T21:07:34.965Z,101679.39
2019-03-01T21:10:04.402Z,101687.14
2019-03-01T21:12:33.485Z,101683.45
2019-03-01T21:15:03.162Z,101685.70
2019-03-01T21:17:31.324Z,101693.98
2019-03-01T21:19:59.467Z,101693.86
2019-03-01T21:22:27.570Z,101691.52
2019-03-01T21:24:55.711Z,101705.12
2019-03-01T21:27:25.907Z,101706.09
2019-03-01T21:29:53.879Z,101701.65
2019-03-01T21:32:21.980Z,101697.79
2019-03-01T21:34:50.149Z,101700.16
2019-03-01T21:37:18.244Z,101702.29
2019-03-01T21:39:46.503Z,101701.89
2019-03-01T21:42:16.958Z,101706.11
2019-03-01T21:44:45.659Z,101705.06
2019-03-01T21:47:15.052Z,101711.47
2019-03-01T21:49:45.178Z,101712.52
2019-03-01T21:52:13.243Z,101712.08
2019-03-01T21:54:41.598Z,101712.13
2019-03-01T21:57:09.708Z,101709.20
2019-03-01T21:59:37.867Z,101705.06
2019-03-01T22:02:06.352Z,101705.50
2019-03-01T22:04:37.389Z,101708.81
2019-03-01T22:07:04.705Z,101707.13
2019-03-01T22:09:32.923Z,101704.69
2019-03-01T22:12:01.059Z,101702.29
2019-03-01T22:14:29.183Z,101700.79
2019-03-01T22:16:57.269Z,101701.95
2019-03-01T22:19:25.346Z,101705.25
2019-03-01T22:21:54.642Z,101707.32
2019-03-01T22:24:23.687Z,101709.11
2019-03-01T22:26:53.525Z,101709.72
2019-03-01T22:29:21.961Z,101703.95
2019-03-01T22:31:50.074Z,101705.14
2019-03-01T22:34:18.322Z,101709.70
2019-03-01T22:36:49.517Z,101705.64
2019-03-01T22:39:16.735Z,101713.31
2019-03-01T22:41:45.733Z,101709.76
2019-03-01T22:44:13.860Z,101708.86
2019-03-01T22:46:41.989Z,101717.76
2019-03-01T22:49:10.137Z,101713.83
2019-03-01T22:51:38.330Z,101710.86
2019-03-01T22:54:06.455Z,101706.15
2019-03-01T22:56:34.633Z,101707.16
2019-03-01T22:59:02.722Z,101706.72
2019-03-01T23:01:40.138Z,101708.86
2019-03-01T23:04:08.247Z,101707.61
2019-03-01T23:06:37.014Z,101710.41
2019-03-01T23:09:11.604Z,101702.66
2019-03-01T23:11:40.141Z,101707.23
2019-03-01T23:14:08.562Z,101701.25
2019-03-01T23:16:36.678Z,101708.86
2019-03-01T23:19:05.180Z,101706.66
2019-03-01T23:21:36.007Z,101703.24
2019-03-01T23:24:03.484Z,101715.18
2019-03-01T23:26:31.651Z,101716.71
2019-03-01T23:28:59.741Z,101714.17
2019-03-01T23:31:27.974Z,101713.33
2019-03-01T23:33:56.063Z,101711.27
2019-03-01T23:36:28.349Z,101707.03
2019-03-01T23:38:55.146Z,101711.30
2019-03-01T23:41:23.571Z,101711.91
2019-03-01T23:43:51.663Z,101705.88
2019-03-01T23:46:20.822Z,101707.17
2019-03-01T23:48:49.790Z,101694.98
2019-03-01T23:51:18.356Z,101695.63
2019-03-01T23:53:46.432Z,101702.97
2019-03-01T23:56:14.528Z,101704.63
2019-03-01T23:58:42.624Z,101704.80
